sensor_id;sensor_type;location;lat;lon;timestamp;pressure;altitude;pressure_sealevel;temperature;humidity
25638;BME280;13496;51.040;13.680;2023-09-19T00:03:42;99033.16;;;24.98;48.51
25638;BME280;13496;51.040;13.680;2023-09-19T00:08:43;99029.69;;;24.98;48.54
25638;BME280;13496;51.040;13.680;2023-09-19T00:13:47;99028.09;;;24.97;48.39
25638;BME280;13496;51.040;13.680;2023-09-19T00:18:51;99036.28;;;24.95;48.21
25638;BME280;13496;51.040;13.680;2023-09-19T00:23:54;99024.06;;;24.94;48.03
25638;BME280;13496;51.040;13.680;2023-09-19T00:28:56;99010.81;;;24.94;48.17
25638;BME280;13496;51.040;13.680;2023-09-19T00:33:58;99006.78;;;24.92;48.12
25638;BME280;13496;51.040;13.680;2023-09-19T00:39:01;99007.03;;;24.90;48.11
25638;BME280;13496;51.040;13.680;2023-09-19T00:44:04;98996.94;;;24.87;48.18
25638;BME280;13496;51.040;13.680;2023-09-19T00:49:07;98996.13;;;24.86;48.30
25638;BME280;13496;51.040;13.680;2023-09-19T00:54:09;98997.97;;;24.86;48.38
25638;BME280;13496;51.040;13.680;2023-09-19T00:59:11;99006.19;;;24.84;48.24
25638;BME280;13496;51.040;13.680;2023-09-19T01:04:13;99014.69;;;24.86;48.31
25638;BME280;13496;51.040;13.680;2023-09-19T01:09:15;99002.50;;;24.85;48.17
25638;BME280;13496;51.040;13.680;2023-09-19T01:14:31;99010.44;;;24.85;48.28
25638;BME280;13496;51.040;13.680;2023-09-19T01:25:43;99030.09;;;24.84;48.29
25638;BME280;13496;51.040;13.680;2023-09-19T01:30:33;99024.78;;;24.84;48.21
25638;BME280;13496;51.040;13.680;2023-09-19T01:35:38;99026.06;;;24.82;48.48
25638;BME280;13496;51.040;13.680;2023-09-19T01:40:42;99017.53;;;24.80;48.40
25638;BME280;13496;51.040;13.680;2023-09-19T01:46:01;99017.53;;;24.80;48.24
25638;BME280;13496;51.040;13.680;2023-09-19T01:51:07;99009.56;;;24.80;48.44
25638;BME280;13496;51.040;13.680;2023-09-19T01:56:14;99015.44;;;24.82;48.53
25638;BME280;13496;51.040;13.680;2023-09-19T02:01:23;99023.91;;;24.79;48.59
25638;BME280;13496;51.040;13.680;2023-09-19T02:06:26;99024.47;;;24.81;48.78
25638;BME280;13496;51.040;13.680;2023-09-19T02:11:28;99035.06;;;24.81;48.73
25638;BME280;13496;51.040;13.680;2023-09-19T02:16:30;99023.59;;;24.75;48.80
25638;BME280;13496;51.040;13.680;2023-09-19T02:21:31;99026.50;;;24.74;48.89
25638;BME280;13496;51.040;13.680;2023-09-19T02:26:33;99029.38;;;24.72;48.94
25638;BME280;13496;51.040;13.680;2023-09-19T02:31:37;99032.28;;;24.71;48.80
25638;BME280;13496;51.040;13.680;2023-09-19T02:36:39;99031.72;;;24.69;48.97
25638;BME280;13496;51.040;13.680;2023-09-19T02:41:40;99040.72;;;24.68;48.80
25638;BME280;13496;51.040;13.680;2023-09-19T02:46:43;99053.44;;;24.66;49.12
25638;BME280;13496;51.040;13.680;2023-09-19T02:51:44;99055.06;;;24.67;49.09
25638;BME280;13496;51.040;13.680;2023-09-19T02:56:47;99048.13;;;24.66;48.70
25638;BME280;13496;51.040;13.680;2023-09-19T03:01:49;99046.03;;;24.68;48.83
25638;BME280;13496;51.040;13.680;2023-09-19T03:06:50;99059.56;;;24.66;48.76
25638;BME280;13496;51.040;13.680;2023-09-19T03:11:53;99076.44;;;24.60;48.79
25638;BME280;13496;51.040;13.680;2023-09-19T03:16:56;99079.09;;;24.60;48.93
25638;BME280;13496;51.040;13.680;2023-09-19T03:21:58;99089.44;;;24.61;48.96
25638;BME280;13496;51.040;13.680;2023-09-19T03:27:00;99101.38;;;24.59;48.59
25638;BME280;13496;51.040;13.680;2023-09-19T03:32:02;99095.28;;;24.58;49.00
25638;BME280;13496;51.040;13.680;2023-09-19T03:37:05;99097.34;;;24.56;48.85
25638;BME280;13496;51.040;13.680;2023-09-19T03:42:08;99094.69;;;24.56;48.80
25638;BME280;13496;51.040;13.680;2023-09-19T03:47:11;99079.84;;;24.55;49.25
25638;BME280;13496;51.040;13.680;2023-09-19T03:52:13;99095.19;;;24.53;48.70
25638;BME280;13496;51.040;13.680;2023-09-19T03:57:16;99092.53;;;24.53;48.80
25638;BME280;13496;51.040;13.680;2023-09-19T04:02:22;99102.59;;;24.51;48.89
25638;BME280;13496;51.040;13.680;2023-09-19T04:07:25;99111.66;;;24.55;48.99
25638;BME280;13496;51.040;13.680;2023-09-19T04:12:30;99105.06;;;24.58;48.48
25638;BME280;13496;51.040;13.680;2023-09-19T04:17:32;99118.56;;;24.56;48.83
25638;BME280;13496;51.040;13.680;2023-09-19T04:22:36;99116.66;;;24.52;48.88
25638;BME280;13496;51.040;13.680;2023-09-19T04:27:38;99123.81;;;24.51;49.12
25638;BME280;13496;51.040;13.680;2023-09-19T04:32:40;99118.81;;;24.55;49.01
25638;BME280;13496;51.040;13.680;2023-09-19T04:37:42;99117.69;;;24.51;49.08
25638;BME280;13496;51.040;13.680;2023-09-19T04:42:44;99139.47;;;24.53;48.92
25638;BME280;13496;51.040;13.680;2023-09-19T04:47:46;99135.44;;;24.50;49.07
25638;BME280;13496;51.040;13.680;2023-09-19T04:52:50;99138.34;;;24.49;49.04
25638;BME280;13496;51.040;13.680;2023-09-19T04:57:53;99152.41;;;24.49;49.04
25638;BME280;13496;51.040;13.680;2023-09-19T05:02:55;99152.41;;;24.49;49.19
25638;BME280;13496;51.040;13.680;2023-09-19T05:08:00;99153.47;;;24.48;49.09
25638;BME280;13496;51.040;13.680;2023-09-19T05:13:01;99165.94;;;24.48;48.90
25638;BME280;13496;51.040;13.680;2023-09-19T05:18:03;99178.94;;;24.49;48.95
25638;BME280;13496;51.040;13.680;2023-09-19T05:23:07;99191.94;;;24.51;48.94
25638;BME280;13496;51.040;13.680;2023-09-19T05:28:13;99186.41;;;24.52;48.76
25638;BME280;13496;51.040;13.680;2023-09-19T05:33:16;99185.84;;;24.50;48.86
25638;BME280;13496;51.040;13.680;2023-09-19T05:38:19;99181.09;;;24.52;48.80
25638;BME280;13496;51.040;13.680;2023-09-19T05:43:21;99196.44;;;24.50;49.05
25638;BME280;13496;51.040;13.680;2023-09-19T05:48:23;99201.53;;;24.52;48.71
25638;BME280;13496;51.040;13.680;2023-09-19T05:53:25;99208.19;;;24.54;48.97
25638;BME280;13496;51.040;13.680;2023-09-19T05:58:27;99203.94;;;24.53;48.52
25638;BME280;13496;51.040;13.680;2023-09-19T06:03:31;99210.81;;;24.54;48.69
25638;BME280;13496;51.040;13.680;2023-09-19T06:08:33;99197.56;;;24.54;48.48
25638;BME280;13496;51.040;13.680;2023-09-19T06:13:35;99204.25;;;24.57;48.49
25638;BME280;13496;51.040;13.680;2023-09-19T06:18:37;99214.31;;;24.55;48.50
25638;BME280;13496;51.040;13.680;2023-09-19T06:23:38;99223.06;;;24.55;48.59
25638;BME280;13496;51.040;13.680;2023-09-19T06:28:40;99233.69;;;24.55;48.54
25638;BME280;13496;51.040;13.680;2023-09-19T06:33:42;99235.28;;;24.56;48.58
25638;BME280;13496;51.040;13.680;2023-09-19T06:38:44;99253.84;;;24.56;48.56
25638;BME280;13496;51.040;13.680;2023-09-19T06:43:46;99257.88;;;24.59;48.47
25638;BME280;13496;51.040;13.680;2023-09-19T06:48:48;99268.50;;;24.59;48.65
25638;BME280;13496;51.040;13.680;2023-09-19T06:53:50;99282.56;;;24.59;48.70
25638;BME280;13496;51.040;13.680;2023-09-19T06:58:55;99277.91;;;24.67;48.48
25638;BME280;13496;51.040;13.680;2023-09-19T07:03:57;99286.88;;;24.66;48.54
25638;BME280;13496;51.040;13.680;2023-09-19T07:08:59;99293.56;;;24.68;48.22
25638;BME280;13496;51.040;13.680;2023-09-19T07:14:01;99309.25;;;24.70;48.05
25638;BME280;13496;51.040;13.680;2023-09-19T07:19:05;99312.47;;;24.72;48.16
25638;BME280;13496;51.040;13.680;2023-09-19T07:24:07;99316.16;;;24.71;47.70
25638;BME280;13496;51.040;13.680;2023-09-19T07:29:09;99330.50;;;24.70;47.97
25638;BME280;13496;51.040;13.680;2023-09-19T07:34:11;99339.81;;;24.72;47.93
25638;BME280;13496;51.040;13.680;2023-09-19T07:39:15;99345.44;;;24.76;47.88
25638;BME280;13496;51.040;13.680;2023-09-19T07:44:17;99340.13;;;24.76;47.54
25638;BME280;13496;51.040;13.680;2023-09-19T07:49:18;99344.63;;;24.75;47.84
25638;BME280;13496;51.040;13.680;2023-09-19T07:54:20;99349.13;;;24.75;47.29
25638;BME280;13496;51.040;13.680;2023-09-19T07:59:22;99360.88;;;24.79;47.37
25638;BME280;13496;51.040;13.680;2023-09-19T08:04:24;99352.84;;;24.74;46.70
25638;BME280;13496;51.040;13.680;2023-09-19T08:09:27;99362.75;;;24.78;47.15
25638;BME280;13496;51.040;13.680;2023-09-19T08:14:29;99360.09;;;24.78;46.68
25638;BME280;13496;51.040;13.680;2023-09-19T08:19:31;99359.38;;;24.83;46.68
25638;BME280;13496;51.040;13.680;2023-09-19T08:24:33;99360.75;;;24.85;47.00
25638;BME280;13496;51.040;13.680;2023-09-19T08:29:36;99372.16;;;24.86;47.07
25638;BME280;13496;51.040;13.680;2023-09-19T08:34:37;99375.88;;;24.85;46.27
25638;BME280;13496;51.040;13.680;2023-09-19T08:39:39;99388.09;;;24.86;46.02
25638;BME280;13496;51.040;13.680;2023-09-19T08:44:41;99391.88;;;24.90;46.10
25638;BME280;13496;51.040;13.680;2023-09-19T08:50:04;99392.44;;;24.92;46.46
25638;BME280;13496;51.040;13.680;2023-09-19T08:55:15;99382.38;;;24.94;45.99
25638;BME280;13496;51.040;13.680;2023-09-19T09:00:23;99397.25;;;24.95;45.64
25638;BME280;13496;51.040;13.680;2023-09-19T09:05:27;99397.25;;;24.95;45.71
25638;BME280;13496;51.040;13.680;2023-09-19T09:10:29;99393.78;;;24.95;45.53
25638;BME280;13496;51.040;13.680;2023-09-19T09:15:31;99395.19;;;24.97;45.15
25638;BME280;13496;51.040;13.680;2023-09-19T09:20:35;99394.22;;;25.03;45.55
25638;BME280;13496;51.040;13.680;2023-09-19T09:25:56;99390.06;;;25.07;44.52
25638;BME280;13496;51.040;13.680;2023-09-19T09:30:58;99396.84;;;25.15;45.30
25638;BME280;13496;51.040;13.680;2023-09-19T09:36:01;99409.88;;;25.17;44.94
25638;BME280;13496;51.040;13.680;2023-09-19T09:41:04;99402.72;;;25.17;45.55
25638;BME280;13496;51.040;13.680;2023-09-19T09:46:18;99409.41;;;25.20;45.72
25638;BME280;13496;51.040;13.680;2023-09-19T09:51:30;99403.84;;;25.21;45.03
25638;BME280;13496;51.040;13.680;2023-09-19T09:56:32;99410.06;;;25.27;45.64
25638;BME280;13496;51.040;13.680;2023-09-19T10:01:48;99415.38;;;25.27;45.15
25638;BME280;13496;51.040;13.680;2023-09-19T10:06:51;99405.78;;;25.26;45.31
25638;BME280;13496;51.040;13.680;2023-09-19T10:12:23;99413.50;;;25.27;45.58
25638;BME280;13496;51.040;13.680;2023-09-19T10:17:29;99402.09;;;25.27;45.30
25638;BME280;13496;51.040;13.680;2023-09-19T10:22:33;99417.75;;;25.28;45.15
25638;BME280;13496;51.040;13.680;2023-09-19T10:27:37;99420.66;;;25.27;45.54
25638;BME280;13496;51.040;13.680;2023-09-19T10:32:40;99422.28;;;25.28;44.59
25638;BME280;13496;51.040;13.680;2023-09-19T10:37:44;99420.66;;;25.27;44.13
25638;BME280;13496;51.040;13.680;2023-09-19T10:42:51;99415.09;;;25.28;44.89
25638;BME280;13496;51.040;13.680;2023-09-19T10:47:53;99409.31;;;25.31;45.01
25638;BME280;13496;51.040;13.680;2023-09-19T10:52:55;99409.09;;;25.33;44.36
25638;BME280;13496;51.040;13.680;2023-09-19T10:57:59;99402.72;;;25.34;44.21
25638;BME280;13496;51.040;13.680;2023-09-19T11:08:15;99408.22;;;25.44;44.35
25638;BME280;13496;51.040;13.680;2023-09-19T11:13:26;99400.78;;;25.46;44.40
25638;BME280;13496;51.040;13.680;2023-09-19T11:23:42;99401.75;;;25.57;44.40
25638;BME280;13496;51.040;13.680;2023-09-19T11:28:44;99405.53;;;25.61;44.70
25638;BME280;13496;51.040;13.680;2023-09-19T11:39:28;99404.16;;;25.58;44.20
25638;BME280;13496;51.040;13.680;2023-09-19T11:49:32;99404.25;;;25.64;43.96
25638;BME280;13496;51.040;13.680;2023-09-19T11:54:35;99411.16;;;25.65;42.60
25638;BME280;13496;51.040;13.680;2023-09-19T11:59:41;99401.66;;;25.69;43.59
25638;BME280;13496;51.040;13.680;2023-09-19T12:04:44;99406.97;;;25.69;43.07
25638;BME280;13496;51.040;13.680;2023-09-19T12:10:01;99399.56;;;25.71;43.14
25638;BME280;13496;51.040;13.680;2023-09-19T12:15:03;99406.75;;;25.70;42.86
25638;BME280;13496;51.040;13.680;2023-09-19T12:20:07;99408.09;;;25.73;42.69
25638;BME280;13496;51.040;13.680;2023-09-19T12:25:15;99413.50;;;25.78;43.47
25638;BME280;13496;51.040;13.680;2023-09-19T12:30:19;99404.50;;;25.79;43.36
25638;BME280;13496;51.040;13.680;2023-09-19T12:35:41;99400.56;;;25.81;43.16
25638;BME280;13496;51.040;13.680;2023-09-19T12:40:47;99405.31;;;25.79;43.55
25638;BME280;13496;51.040;13.680;2023-09-19T12:45:53;99405.88;;;25.81;43.26
25638;BME280;13496;51.040;13.680;2023-09-19T12:51:04;99397.09;;;25.81;42.89
25638;BME280;13496;51.040;13.680;2023-09-19T12:56:14;99380.09;;;25.82;43.51
25638;BME280;13496;51.040;13.680;2023-09-19T13:01:17;99396.03;;;25.82;43.07
25638;BME280;13496;51.040;13.680;2023-09-19T13:06:38;99392.66;;;25.87;43.77
25638;BME280;13496;51.040;13.680;2023-09-19T13:11:45;99397.47;;;25.90;43.23
25638;BME280;13496;51.040;13.680;2023-09-19T13:22:40;99393.22;;;25.89;43.45
25638;BME280;13496;51.040;13.680;2023-09-19T13:32:46;99389.34;;;25.96;43.38
25638;BME280;13496;51.040;13.680;2023-09-19T13:37:48;99383.75;;;25.98;43.12
25638;BME280;13496;51.040;13.680;2023-09-19T13:42:53;99394.38;;;25.98;42.44
25638;BME280;13496;51.040;13.680;2023-09-19T13:47:55;99384.00;;;25.96;42.45
25638;BME280;13496;51.040;13.680;2023-09-19T13:52:56;99386.69;;;25.96;41.73
25638;BME280;13496;51.040;13.680;2023-09-19T13:57:59;99385.88;;;25.96;41.46
25638;BME280;13496;51.040;13.680;2023-09-19T14:03:01;99393.53;;;25.92;41.17
25638;BME280;13496;51.040;13.680;2023-09-19T14:08:04;99383.44;;;25.94;42.06
25638;BME280;13496;51.040;13.680;2023-09-19T14:13:05;99379.97;;;25.94;42.74
25638;BME280;13496;51.040;13.680;2023-09-19T14:18:07;99387.22;;;25.98;42.79
25638;BME280;13496;51.040;13.680;2023-09-19T14:23:10;99384.56;;;25.98;43.22
25638;BME280;13496;51.040;13.680;2023-09-19T14:28:12;99371.53;;;25.97;43.27
25638;BME280;13496;51.040;13.680;2023-09-19T14:33:13;99375.56;;;25.99;42.90
25638;BME280;13496;51.040;13.680;2023-09-19T14:38:17;99373.91;;;25.98;42.66
25638;BME280;13496;51.040;13.680;2023-09-19T14:43:18;99364.91;;;25.99;43.28
25638;BME280;13496;51.040;13.680;2023-09-19T14:48:20;99362.81;;;26.01;41.85
25638;BME280;13496;51.040;13.680;2023-09-19T14:53:26;99360.72;;;26.03;42.13
25638;BME280;13496;51.040;13.680;2023-09-19T14:58:30;99365.47;;;26.01;41.84
25638;BME280;13496;51.040;13.680;2023-09-19T15:03:32;99375.78;;;25.98;41.71
25638;BME280;13496;51.040;13.680;2023-09-19T15:08:35;99356.94;;;25.99;41.96
25638;BME280;13496;51.040;13.680;2023-09-19T15:13:40;99369.41;;;25.99;42.28
25638;BME280;13496;51.040;13.680;2023-09-19T15:18:45;99368.38;;;26.00;42.69
25638;BME280;13496;51.040;13.680;2023-09-19T15:23:49;99364.41;;;26.02;42.54
25638;BME280;13496;51.040;13.680;2023-09-19T15:28:50;99363.13;;;26.05;42.98
25638;BME280;13496;51.040;13.680;2023-09-19T15:33:52;99356.72;;;26.06;42.86
25638;BME280;13496;51.040;13.680;2023-09-19T15:39:07;99359.09;;;26.02;42.32
25638;BME280;13496;51.040;13.680;2023-09-19T15:44:12;99359.09;;;26.02;41.89
25638;BME280;13496;51.040;13.680;2023-09-19T15:49:14;99359.09;;;26.02;42.54
25638;BME280;13496;51.040;13.680;2023-09-19T15:54:16;99364.97;;;26.04;42.02
25638;BME280;13496;51.040;13.680;2023-09-19T15:59:19;99365.50;;;26.06;41.99
25638;BME280;13496;51.040;13.680;2023-09-19T16:04:21;99356.72;;;26.06;42.12
25638;BME280;13496;51.040;13.680;2023-09-19T16:09:22;99360.19;;;26.06;42.06
25638;BME280;13496;51.040;13.680;2023-09-19T16:14:26;99362.84;;;26.06;42.12
25638;BME280;13496;51.040;13.680;2023-09-19T16:19:30;99364.72;;;26.06;42.26
25638;BME280;13496;51.040;13.680;2023-09-19T16:24:34;99371.09;;;26.05;42.29
25638;BME280;13496;51.040;13.680;2023-09-19T16:29:35;99375.59;;;26.04;42.05
25638;BME280;13496;51.040;13.680;2023-09-19T16:34:40;99373.75;;;26.05;42.22
25638;BME280;13496;51.040;13.680;2023-09-19T16:39:42;99378.75;;;26.01;42.10
25638;BME280;13496;51.040;13.680;2023-09-19T16:44:44;99387.00;;;26.00;41.42
25638;BME280;13496;51.040;13.680;2023-09-19T16:49:47;99394.22;;;26.04;42.64
25638;BME280;13496;51.040;13.680;2023-09-19T16:54:49;99395.34;;;26.09;42.04
25638;BME280;13496;51.040;13.680;2023-09-19T16:59:50;99405.72;;;26.10;40.97
25638;BME280;13496;51.040;13.680;2023-09-19T17:04:52;99408.06;;;26.06;40.84
25638;BME280;13496;51.040;13.680;2023-09-19T17:09:55;99410.97;;;26.05;41.16
25638;BME280;13496;51.040;13.680;2023-09-19T17:14:57;99414.72;;;25.87;39.92
25638;BME280;13496;51.040;13.680;2023-09-19T17:19:59;99414.72;;;25.20;36.92
25638;BME280;13496;51.040;13.680;2023-09-19T17:25:00;99412.25;;;25.01;35.96
25638;BME280;13496;51.040;13.680;2023-09-19T17:30:03;99425.00;;;24.59;35.62
25638;BME280;13496;51.040;13.680;2023-09-19T17:35:07;99433.63;;;24.54;36.79
25638;BME280;13496;51.040;13.680;2023-09-19T17:40:10;99436.94;;;23.98;35.73
25638;BME280;13496;51.040;13.680;2023-09-19T17:45:12;99437.75;;;23.98;36.38
25638;BME280;13496;51.040;13.680;2023-09-19T17:50:17;99432.00;;;23.89;36.41
25638;BME280;13496;51.040;13.680;2023-09-19T17:55:19;99444.00;;;23.50;35.80
25638;BME280;13496;51.040;13.680;2023-09-19T18:00:21;99446.03;;;23.25;37.57
25638;BME280;13496;51.040;13.680;2023-09-19T18:05:23;99449.59;;;23.18;38.73
25638;BME280;13496;51.040;13.680;2023-09-19T18:10:25;99470.28;;;22.91;39.53
25638;BME280;13496;51.040;13.680;2023-09-19T18:15:28;99474.13;;;22.96;40.21
25638;BME280;13496;51.040;13.680;2023-09-19T18:20:36;99483.09;;;23.25;38.09
25638;BME280;13496;51.040;13.680;2023-09-19T18:25:39;99494.16;;;23.22;38.37
25638;BME280;13496;51.040;13.680;2023-09-19T18:30:41;99494.50;;;23.25;37.32
25638;BME280;13496;51.040;13.680;2023-09-19T18:35:43;99497.69;;;23.15;37.31
25638;BME280;13496;51.040;13.680;2023-09-19T18:40:45;99497.56;;;23.10;38.44
25638;BME280;13496;51.040;13.680;2023-09-19T18:45:56;99510.19;;;22.90;37.42
25638;BME280;13496;51.040;13.680;2023-09-19T18:51:04;99516.09;;;22.74;37.68
25638;BME280;13496;51.040;13.680;2023-09-19T18:56:09;99513.38;;;22.43;38.12
25638;BME280;13496;51.040;13.680;2023-09-19T19:01:14;99513.84;;;22.34;37.88
25638;BME280;13496;51.040;13.680;2023-09-19T19:06:20;99510.47;;;22.27;38.20
25638;BME280;13496;51.040;13.680;2023-09-19T19:11:23;99520.72;;;22.16;38.29
25638;BME280;13496;51.040;13.680;2023-09-19T19:16:27;99526.69;;;22.05;38.56
25638;BME280;13496;51.040;13.680;2023-09-19T19:21:30;99523.50;;;21.96;38.87
25638;BME280;13496;51.040;13.680;2023-09-19T19:26:32;99527.94;;;22.03;39.20
25638;BME280;13496;51.040;13.680;2023-09-19T19:31:34;99518.13;;;21.85;39.11
25638;BME280;13496;51.040;13.680;2023-09-19T19:36:38;99517.34;;;21.78;39.50
25638;BME280;13496;51.040;13.680;2023-09-19T19:41:42;99532.19;;;21.47;41.08
25638;BME280;13496;51.040;13.680;2023-09-19T19:46:45;99536.50;;;21.35;41.49
25638;BME280;13496;51.040;13.680;2023-09-19T19:51:47;99541.88;;;21.53;40.82
25638;BME280;13496;51.040;13.680;2023-09-19T19:56:51;99533.25;;;21.33;41.02
25638;BME280;13496;51.040;13.680;2023-09-19T20:01:53;99537.22;;;21.10;42.07
25638;BME280;13496;51.040;13.680;2023-09-19T20:06:55;99535.25;;;21.44;41.40
25638;BME280;13496;51.040;13.680;2023-09-19T20:11:58;99536.06;;;21.44;40.98
25638;BME280;13496;51.040;13.680;2023-09-19T20:16:59;99533.72;;;21.16;42.35
25638;BME280;13496;51.040;13.680;2023-09-19T20:22:04;99541.16;;;20.88;42.79
25638;BME280;13496;51.040;13.680;2023-09-19T20:27:08;99546.38;;;21.01;42.90
25638;BME280;13496;51.040;13.680;2023-09-19T20:32:10;99538.84;;;21.05;42.67
25638;BME280;13496;51.040;13.680;2023-09-19T20:37:12;99539.06;;;21.03;42.37
25638;BME280;13496;51.040;13.680;2023-09-19T20:42:16;99533.97;;;21.08;41.90
25638;BME280;13496;51.040;13.680;2023-09-19T20:47:18;99532.59;;;20.99;42.35
25638;BME280;13496;51.040;13.680;2023-09-19T20:52:20;99523.47;;;20.95;42.45
25638;BME280;13496;51.040;13.680;2023-09-19T20:57:23;99518.41;;;20.93;42.81
25638;BME280;13496;51.040;13.680;2023-09-19T21:02:24;99525.75;;;20.85;43.01
25638;BME280;13496;51.040;13.680;2023-09-19T21:07:26;99529.66;;;20.49;43.29
25638;BME280;13496;51.040;13.680;2023-09-19T21:12:31;99527.03;;;20.42;44.22
25638;BME280;13496;51.040;13.680;2023-09-19T21:17:34;99526.25;;;20.55;43.62
25638;BME280;13496;51.040;13.680;2023-09-19T21:22:43;99523.63;;;19.89;45.14
25638;BME280;13496;51.040;13.680;2023-09-19T21:27:45;99523.59;;;19.69;45.62
25638;BME280;13496;51.040;13.680;2023-09-19T21:32:48;99522.22;;;19.93;45.37
25638;BME280;13496;51.040;13.680;2023-09-19T21:37:50;99521.00;;;20.22;43.93
25638;BME280;13496;51.040;13.680;2023-09-19T21:42:51;99514.09;;;20.01;44.18
25638;BME280;13496;51.040;13.680;2023-09-19T21:47:53;99516.94;;;19.73;44.83
25638;BME280;13496;51.040;13.680;2023-09-19T21:52:55;99522.63;;;20.03;44.73
25638;BME280;13496;51.040;13.680;2023-09-19T21:57:57;99518.66;;;19.39;46.41
25638;BME280;13496;51.040;13.680;2023-09-19T22:02:59;99523.13;;;18.84;47.50
25638;BME280;13496;51.040;13.680;2023-09-19T22:08:01;99512.59;;;19.39;47.34
25638;BME280;13496;51.040;13.680;2023-09-19T22:13:05;99514.69;;;19.02;47.33
25638;BME280;13496;51.040;13.680;2023-09-19T22:18:09;99507.41;;;18.28;49.20
25638;BME280;13496;51.040;13.680;2023-09-19T22:23:15;99506.78;;;17.98;50.38
25638;BME280;13496;51.040;13.680;2023-09-19T22:28:17;99507.28;;;17.65;50.62
25638;BME280;13496;51.040;13.680;2023-09-19T22:33:18;99502.09;;;17.72;50.36
25638;BME280;13496;51.040;13.680;2023-09-19T22:38:21;99499.19;;;18.09;49.69
25638;BME280;13496;51.040;13.680;2023-09-19T22:43:23;99495.28;;;17.99;49.36
25638;BME280;13496;51.040;13.680;2023-09-19T22:48:33;99494.28;;;17.35;51.30
25638;BME280;13496;51.040;13.680;2023-09-19T22:53:35;99497.53;;;18.02;50.55
25638;BME280;13496;51.040;13.680;2023-09-19T22:58:46;99509.09;;;17.86;50.42
25638;BME280;13496;51.040;13.680;2023-09-19T23:03:49;99499.34;;;18.01;50.17
25638;BME280;13496;51.040;13.680;2023-09-19T23:09:06;99499.34;;;18.64;49.17
25638;BME280;13496;51.040;13.680;2023-09-19T23:14:17;99502.94;;;18.98;48.09
25638;BME280;13496;51.040;13.680;2023-09-19T23:19:19;99500.91;;;18.93;48.12
25638;BME280;13496;51.040;13.680;2023-09-19T23:24:31;99502.91;;;18.84;48.54
25638;BME280;13496;51.040;13.680;2023-09-19T23:29:34;99509.03;;;17.79;50.59
25638;BME280;13496;51.040;13.680;2023-09-19T23:34:40;99503.47;;;17.25;52.42
25638;BME280;13496;51.040;13.680;2023-09-19T23:39:42;99512.66;;;17.35;51.90
25638;BME280;13496;51.040;13.680;2023-09-19T23:44:44;99508.78;;;17.96;50.78
25638;BME280;13496;51.040;13.680;2023-09-19T23:49:50;99514.94;;;18.09;50.59
25638;BME280;13496;51.040;13.680;2023-09-19T23:54:54;99509.25;;;17.78;51.56
